Oshawa Airport
CYOO : now visible

Aeroporto :











RITROVATECI SU...

 
LOGIN :

Iscrizione | Disclaimer

   EN    FR    IT 

 









Sommario :    VFR   VFR Marginale   IFR   IFR Intensivo   IFR Molto Intensivo
Visibilità : 
Base nubi : 
>= 8 km
>= 3000ft
5 / 8 km
1000 / 3000 ft
1500m / 5 km
500 / 1000 ft
800 / 1500m
200 / 500 ft
< 800m
< 200 ft
Simboli :   Temporali  Nebbia  Neve Forte  Precipitazioni Forti  Vento > 20 kt






- Altitudine del aeroporto : 459 ft
- Codice IATA : YOO


CYOO - Oshawa

ULTIMO METAR :
  • 312000Z AUTO 32015G24KT 260V340 9SM SCT140 14/00 A3021 RMK SLP235

METARs OBSOLETI :
  • 311900Z AUTO 31015G22KT 9SM FEW055 BKN140 15/01 A3021 RMK SLP235
  • 311800Z AUTO 32018G23KT 9SM CLR 14/00 A3022 RMK SLP237

TAF TAF CYOO
Valido dal 31 a 20 ore il 01 a 08 ore UTC


311938Z 3120/0108 32015G25KT P6SM SCT060
TEMPO 3120/3122 BKN060
FM312200 32015G25KT P6SM BKN060
TEMPO 3122/0104 P6SM -SHRA
FM010400 29006KT P6SM SCT040 RMK FCST BASED ON AUTO OBS. NXT FCST BY 010200Z
FIR CZYZ / America del Nord



MetMap, La meteo Aeronautica in un colpo d'occhio ! - Copyright ORBIFLY Dicembre 2007 - Disclaimer

ORBIFLY MET'MAP TEAM :

Programmazione e sviluppo : Alexandra Zaïnal
Concezione : Baudouin d'Aumeries
Aiuto per la programmazione : Marc-Olivier Méhu
Supporto tecnico e logistico : Manuel Goepfert
Aiuto per la traduzione : Arnaldo La Scala

Contatto : metmap@orbifly.com




FONTI E CREDITI :

   NOAA       Earth
Advisory